KJVW

John Bell Williams Airport

Raymond, Mississippi, USA
METAR KJVW 231415Z AUTO 16008KT 7SM FEW039 SCT044 21/18 A3030 RMK AO2
Observed Flight Rules
Feb-23 @ 14:15 UTC (8 minutes ago) Visual Flight Rules
Wind Visibility Clouds
160° at 8 knots 7 miles
  • Few at 3,900' AGL
  • Scattered at 4,400' AGL
Temperatures Readings
Current 21°C / 70°F
Dewpoint 18°C / 64°F
Humidity 83%
Altimeter 30.3" Hg
Pressure 1026 hPa
Elevation 76
METAR KJVW 231415Z AUTO 16008KT 7SM FEW039 SCT044 21/18 A3030 RMK AO2
Observed Flight Rules
Feb-23 @ 14:15 UTC
(8 minutes ago)
VFR
Wind Visibility
160° at 8 knots 7 miles
Clouds
  • Few at 3,900' AGL
  • Scattered at 4,400' AGL
Temperature Dewpoint
21°C / 70°F 18°C / 64°F
Humidity Altimeter Pressure
83% 30.3" Hg 1026 hPa